Time;durP1;ratioP1;P1;durP2;ratioP2;P2;SDS_P1;SDS_P2;PMS_P1;PMS_P2;Temp;Humidity;BMP_temperature;BMP_pressure;BME280_temperature;BME280_humidity;BME280_pressure;Samples;Min_cycle;Max_cycle;Signal;HPM_P1;HPM_P2
2023/01/31 00:03:46;;;;;;;4.97;3.43;;;6.70;43.10;;;;;;10297038;28;20239;-72
2023/01/31 00:08:51;;;;;;;5.80;4.17;;;6.70;43.00;;;;;;10303839;28;20258;-70
2023/01/31 00:13:54;;;;;;;5.63;3.47;;;6.70;43.00;;;;;;10305993;28;20243;-71
2023/01/31 00:18:59;;;;;;;5.20;3.90;;;6.70;43.10;;;;;;10305129;28;20849;-69
2023/01/31 00:24:04;;;;;;;4.57;3.80;;;6.70;43.00;;;;;;10304321;28;20238;-70
2023/01/31 00:29:07;;;;;;;4.77;3.90;;;6.70;43.00;;;;;;10301433;28;20245;-70
2023/01/31 00:34:12;;;;;;;5.97;3.53;;;6.70;43.00;;;;;;10306011;28;20242;-70
2023/01/31 00:39:15;;;;;;;5.97;4.10;;;6.70;43.00;;;;;;10305173;28;20265;-76
2023/01/31 00:44:18;;;;;;;5.73;3.63;;;6.60;42.90;;;;;;10300201;28;20720;-76
2023/01/31 00:49:23;;;;;;;5.17;3.77;;;6.60;43.00;;;;;;10300654;28;20834;-76
2023/01/31 00:54:26;;;;;;;4.77;3.57;;;6.60;42.90;;;;;;10301923;28;20234;-76
2023/01/31 00:59:29;;;;;;;4.30;3.87;;;6.70;43.00;;;;;;10296080;28;20652;-76
2023/01/31 01:04:34;;;;;;;6.43;3.80;;;6.70;43.00;;;;;;10298916;28;20263;-76
2023/01/31 01:09:37;;;;;;;6.37;3.97;;;6.70;42.90;;;;;;10298806;28;20235;-76
2023/01/31 01:14:40;;;;;;;4.73;3.47;;;6.70;42.70;;;;;;10303518;28;20222;-76
2023/01/31 01:19:45;;;;;;;4.97;3.63;;;6.70;42.80;;;;;;10299247;28;20247;-77
2023/01/31 01:24:48;;;;;;;3.70;3.30;;;6.70;42.70;;;;;;10301706;28;20607;-76
2023/01/31 01:29:51;;;;;;;5.20;3.73;;;6.70;42.70;;;;;;10303217;28;20228;-77
2023/01/31 01:34:56;;;;;;;5.80;3.23;;;6.70;43.40;;;;;;10300820;28;20239;-76
2023/01/31 01:39:59;;;;;;;5.90;3.40;;;6.70;42.60;;;;;;10299555;28;20283;-77
2023/01/31 01:45:04;;;;;;;4.00;3.23;;;6.60;42.70;;;;;;10298101;28;20246;-76
2023/01/31 01:50:13;;;;;;;6.97;3.63;;;6.60;42.70;;;;;;10299659;28;20227;-76
2023/01/31 01:55:23;;;;;;;5.20;3.90;;;6.60;42.60;;;;;;10300737;28;20232;-76
2023/01/31 02:00:29;;;;;;;6.03;3.70;;;6.60;42.50;;;;;;10301784;28;20241;-76
2023/01/31 02:05:40;;;;;;;5.53;3.43;;;6.60;42.60;;;;;;10299538;28;20238;-76
2023/01/31 02:10:48;;;;;;;6.60;3.43;;;6.50;42.50;;;;;;10299008;28;20235;-76
2023/01/31 02:15:51;;;;;;;8.23;3.80;;;6.50;42.50;;;;;;10300624;28;20237;-76
2023/01/31 02:21:24;;;;;;;7.73;4.07;;;6.50;42.50;;;;;;10293342;28;20234;-77
2023/01/31 02:26:59;;;;;;;6.30;3.70;;;6.50;42.50;;;;;;10296241;28;20240;-76
2023/01/31 02:32:37;;;;;;;6.67;3.20;;;6.50;42.50;;;;;;10296284;28;20228;-71
2023/01/31 02:37:50;;;;;;;5.40;3.10;;;6.50;42.40;;;;;;10295659;28;20227;-71
2023/01/31 02:43:01;;;;;;;5.63;3.50;;;6.50;42.50;;;;;;10295379;28;20232;-71
2023/01/31 02:48:15;;;;;;;5.77;3.47;;;6.50;42.50;;;;;;10295715;28;20289;-71
2023/01/31 02:53:24;;;;;;;6.03;3.33;;;6.50;42.50;;;;;;10293459;28;20704;-71
2023/01/31 02:58:31;;;;;;;5.90;3.47;;;6.50;42.50;;;;;;10293186;28;20242;-71
2023/01/31 03:03:38;;;;;;;6.70;3.40;;;6.50;42.40;;;;;;10294571;28;20315;-71
2023/01/31 03:08:44;;;;;;;4.20;3.27;;;6.50;42.50;;;;;;10293696;28;20254;-71
2023/01/31 03:13:59;;;;;;;5.33;3.40;;;6.60;42.50;;;;;;10292090;28;20241;-71
2023/01/31 03:19:12;;;;;;;6.67;3.57;;;6.60;42.30;;;;;;10294384;28;20235;-72
2023/01/31 03:24:17;;;;;;;4.50;3.60;;;6.60;42.10;;;;;;10297594;28;20254;-71
2023/01/31 03:29:22;;;;;;;6.00;3.40;;;6.60;42.30;;;;;;10293593;28;20286;-71
2023/01/31 03:34:27;;;;;;;4.90;3.30;;;6.60;42.40;;;;;;10296558;28;21181;-71
2023/01/31 03:39:40;;;;;;;7.00;3.60;;;6.60;42.30;;;;;;10300016;28;20239;-71
2023/01/31 03:44:54;;;;;;;8.20;3.50;;;6.60;42.30;;;;;;10291789;28;20235;-71
2023/01/31 03:50:03;;;;;;;6.67;3.73;;;6.60;42.30;;;;;;10307260;28;20738;-71
2023/01/31 03:55:14;;;;;;;3.90;3.33;;;6.70;42.30;;;;;;10304057;28;20243;-72
2023/01/31 04:00:21;;;;;;;3.93;3.30;;;6.60;42.10;;;;;;10296654;28;20302;-70
2023/01/31 04:05:31;;;;;;;4.93;3.33;;;6.60;42.10;;;;;;10306775;28;20231;-71
2023/01/31 04:10:34;;;;;;;5.87;3.23;;;6.60;42.10;;;;;;10303399;28;20608;-71
2023/01/31 04:15:37;;;;;;;3.87;3.03;;;6.60;42.10;;;;;;10299199;28;20238;-71
2023/01/31 04:20:42;;;;;;;4.27;3.27;;;6.60;42.20;;;;;;10298926;28;20255;-71
2023/01/31 04:25:46;;;;;;;5.33;3.20;;;6.60;42.20;;;;;;10301296;28;20610;-72
2023/01/31 04:30:53;;;;;;;4.83;3.13;;;6.60;42.20;;;;;;10296857;28;20250;-71
2023/01/31 04:35:58;;;;;;;6.00;3.40;;;6.60;42.00;;;;;;10301116;28;20231;-71
2023/01/31 04:41:01;;;;;;;5.93;3.23;;;6.60;42.00;;;;;;10302091;28;20719;-72
2023/01/31 04:46:04;;;;;;;7.63;3.27;;;6.60;42.00;;;;;;10302029;28;20969;-70
2023/01/31 04:51:09;;;;;;;4.37;3.17;;;6.60;42.00;;;;;;10302699;28;20705;-76
2023/01/31 04:56:12;;;;;;;7.30;3.43;;;6.60;42.00;;;;;;10306073;28;20258;-78
2023/01/31 05:01:15;;;;;;;6.77;4.63;;;6.50;42.00;;;;;;10305136;28;20832;-76
2023/01/31 05:06:20;;;;;;;5.50;3.07;;;6.50;42.00;;;;;;10303963;28;20231;-77
2023/01/31 05:11:23;;;;;;;4.93;2.73;;;6.50;41.90;;;;;;10301559;28;20330;-72
2023/01/31 05:16:27;;;;;;;5.47;2.73;;;6.50;42.00;;;;;;10301197;28;20242;-76
2023/01/31 05:21:53;;;;;;;6.20;3.23;;;6.50;42.00;;;;;;10301737;28;20277;-77
2023/01/31 05:26:57;;;;;;;4.37;3.10;;;6.40;41.80;;;;;;10296963;28;20240;-76
2023/01/31 05:32:02;;;;;;;6.77;3.13;;;6.40;41.90;;;;;;10294713;28;20227;-72
2023/01/31 05:37:10;;;;;;;5.07;2.83;;;6.40;42.00;;;;;;10296682;28;20232;-70
2023/01/31 05:42:16;;;;;;;4.57;2.83;;;6.30;42.00;;;;;;10300237;28;20230;-70
2023/01/31 05:47:19;;;;;;;3.83;2.60;;;6.30;42.00;;;;;;10300791;28;20937;-70
2023/01/31 05:52:24;;;;;;;5.33;2.93;;;6.30;42.00;;;;;;10304708;28;20757;-70
2023/01/31 05:57:27;;;;;;;7.87;3.40;;;6.30;42.00;;;;;;10300273;28;20242;-70
2023/01/31 06:02:31;;;;;;;6.20;3.10;;;6.30;41.90;;;;;;10303208;28;20224;-70
2023/01/31 06:07:39;;;;;;;5.43;2.80;;;6.30;41.90;;;;;;10298121;28;20230;-70
2023/01/31 06:12:42;;;;;;;5.47;2.70;;;6.30;42.00;;;;;;10300696;28;20235;-70
2023/01/31 06:17:45;;;;;;;6.27;2.80;;;6.30;42.00;;;;;;10289400;28;20243;-70
2023/01/31 06:22:50;;;;;;;5.97;2.70;;;6.30;42.00;;;;;;10295088;28;20232;-77
2023/01/31 06:27:55;;;;;;;4.77;2.77;;;6.40;42.00;;;;;;10301131;28;20234;-70
2023/01/31 06:32:59;;;;;;;7.40;3.20;;;6.30;42.10;;;;;;10299268;28;20251;-70
2023/01/31 06:38:04;;;;;;;5.23;3.10;;;6.30;42.00;;;;;;10299427;28;20259;-76
2023/01/31 06:43:08;;;;;;;5.23;2.70;;;6.30;42.00;;;;;;10299435;28;20877;-76
2023/01/31 06:48:11;;;;;;;6.10;4.10;;;6.30;42.10;;;;;;10301587;28;20282;-76
2023/01/31 06:53:15;;;;;;;5.90;4.30;;;6.30;42.00;;;;;;10303801;28;20231;-78
2023/01/31 06:58:19;;;;;;;7.43;5.00;;;6.30;42.00;;;;;;10300021;28;20251;-77
2023/01/31 07:03:22;;;;;;;8.43;4.77;;;6.20;42.00;;;;;;10293969;28;20235;-70
2023/01/31 07:08:27;;;;;;;11.57;4.57;;;6.30;42.00;;;;;;10305001;28;20965;-77
2023/01/31 07:13:30;;;;;;;5.37;3.33;;;6.30;41.90;;;;;;10297699;28;20239;-72
2023/01/31 07:18:34;;;;;;;5.00;3.37;;;6.30;42.00;;;;;;10299576;28;20734;-72
2023/01/31 07:23:39;;;;;;;7.03;4.03;;;6.30;42.00;;;;;;10297500;28;20658;-72
2023/01/31 07:28:42;;;;;;;6.33;3.83;;;6.30;42.00;;;;;;10292676;28;20246;-72
2023/01/31 07:33:45;;;;;;;5.70;3.33;;;6.30;42.00;;;;;;10295444;28;20238;-72
2023/01/31 07:38:50;;;;;;;6.10;3.60;;;6.30;42.00;;;;;;10296238;28;20232;-72
2023/01/31 07:43:53;;;;;;;3.83;3.30;;;6.30;41.80;;;;;;10305258;28;20234;-77
2023/01/31 07:48:56;;;;;;;7.00;4.13;;;6.30;42.70;;;;;;10297272;28;20239;-77
2023/01/31 07:54:00;;;;;;;5.87;3.57;;;6.30;42.00;;;;;;10296675;28;20238;-78
2023/01/31 07:59:04;;;;;;;5.30;3.70;;;6.20;42.50;;;;;;10293822;28;20227;-77
2023/01/31 08:04:09;;;;;;;6.03;4.10;;;6.20;41.90;;;;;;10298005;28;20313;-77
2023/01/31 08:09:25;;;;;;;5.53;3.70;;;6.20;42.00;;;;;;10304093;28;20515;-77
2023/01/31 08:14:28;;;;;;;6.00;3.67;;;6.20;42.00;;;;;;10306668;28;20227;-77
2023/01/31 08:19:33;;;;;;;7.10;3.63;;;6.20;42.00;;;;;;10305497;28;20313;-78
2023/01/31 08:24:37;;;;;;;10.03;7.20;;;6.20;42.00;;;;;;10305139;28;20234;-76
2023/01/31 08:29:40;;;;;;;12.07;6.93;;;6.20;41.80;;;;;;10305813;28;20236;-77
2023/01/31 08:34:44;;;;;;;7.50;4.53;;;6.20;41.90;;;;;;10308820;28;20593;-77
2023/01/31 08:39:48;;;;;;;5.43;3.87;;;6.20;42.00;;;;;;10304878;28;20732;-77
2023/01/31 08:44:51;;;;;;;6.23;3.53;;;6.20;42.00;;;;;;10307381;28;20364;-77
2023/01/31 08:49:54;;;;;;;5.00;3.73;;;6.30;42.30;;;;;;10308638;28;20226;-77
2023/01/31 08:54:59;;;;;;;4.43;3.30;;;6.40;42.40;;;;;;10304305;28;20309;-77
2023/01/31 09:00:02;;;;;;;6.23;3.37;;;6.40;42.10;;;;;;10310842;28;20794;-76
2023/01/31 09:05:07;;;;;;;5.37;3.20;;;6.50;42.10;;;;;;10307974;28;20315;-77
2023/01/31 09:10:12;;;;;;;5.00;3.20;;;6.60;41.90;;;;;;10309590;28;20230;-77
2023/01/31 09:15:15;;;;;;;6.27;3.17;;;6.70;41.80;;;;;;10307379;28;20680;-76
2023/01/31 09:20:19;;;;;;;6.90;3.07;;;6.70;41.80;;;;;;10305439;28;20231;-78
2023/01/31 09:25:23;;;;;;;4.47;3.10;;;6.80;41.70;;;;;;10310778;28;20246;-77
2023/01/31 09:30:46;;;;;;;6.03;3.20;;;6.80;41.60;;;;;;10302994;28;20860;-77
2023/01/31 09:35:57;;;;;;;6.17;3.50;;;6.90;41.70;;;;;;10302095;28;20281;-78
2023/01/31 09:41:04;;;;;;;6.40;3.73;;;7.00;41.20;;;;;;10297173;28;20953;-78
2023/01/31 09:46:13;;;;;;;5.63;3.30;;;7.00;41.30;;;;;;10298185;28;20231;-75
2023/01/31 09:51:18;;;;;;;7.03;3.30;;;7.00;40.90;;;;;;10305073;28;20878;-78
2023/01/31 09:56:32;;;;;;;6.33;3.33;;;7.10;41.20;;;;;;10306538;28;20346;-77
2023/01/31 10:01:46;;;;;;;6.23;3.10;;;7.10;41.20;;;;;;10310130;28;20223;-72
2023/01/31 10:06:54;;;;;;;4.97;2.80;;;7.20;40.90;;;;;;10302725;28;20236;-72
2023/01/31 10:12:03;;;;;;;4.33;2.83;;;7.20;40.90;;;;;;10297400;28;20282;-72
2023/01/31 10:17:12;;;;;;;5.83;2.97;;;7.30;40.80;;;;;;10298668;28;20234;-72
2023/01/31 10:22:22;;;;;;;4.53;2.70;;;7.30;40.60;;;;;;10304668;28;20263;-78
2023/01/31 10:27:43;;;;;;;5.93;2.77;;;7.30;40.30;;;;;;10304617;28;20238;-77
2023/01/31 10:32:52;;;;;;;5.13;2.73;;;7.40;40.20;;;;;;10306141;28;20226;-78
2023/01/31 10:38:01;;;;;;;7.10;2.57;;;7.40;40.20;;;;;;10307616;28;20235;-77
2023/01/31 10:43:16;;;;;;;4.10;2.33;;;7.50;40.40;;;;;;10308898;28;20778;-77
2023/01/31 10:48:24;;;;;;;5.40;2.50;;;7.50;40.10;;;;;;10304934;28;20222;-78
2023/01/31 10:53:51;;;;;;;6.27;2.83;;;7.60;40.50;;;;;;10302574;28;20701;-78
2023/01/31 10:58:58;;;;;;;5.53;2.27;;;7.60;39.70;;;;;;10303934;28;20239;-77
2023/01/31 11:04:02;;;;;;;6.13;2.73;;;7.70;39.80;;;;;;10302069;28;20220;-75
2023/01/31 11:09:05;;;;;;;7.33;2.60;;;7.70;40.30;;;;;;10296482;28;20230;-69
2023/01/31 11:14:18;;;;;;;5.10;2.60;;;7.70;40.20;;;;;;10295050;28;20231;-68
2023/01/31 11:19:29;;;;;;;6.13;2.67;;;7.80;39.30;;;;;;10295918;28;20247;-69
2023/01/31 11:24:34;;;;;;;7.23;2.60;;;7.80;39.70;;;;;;10295452;28;20219;-70
2023/01/31 11:29:42;;;;;;;6.23;2.53;;;7.90;40.00;;;;;;10302096;28;20576;-69
2023/01/31 11:34:56;;;;;;;3.37;2.13;;;7.90;39.70;;;;;;10292495;28;20227;-69
2023/01/31 11:40:01;;;;;;;7.13;2.67;;;8.00;39.30;;;;;;10295448;28;20713;-69
2023/01/31 11:45:19;;;;;;;6.20;3.07;;;8.10;39.30;;;;;;10295583;28;20231;-70
2023/01/31 11:50:24;;;;;;;8.57;3.30;;;8.10;39.30;;;;;;10292404;28;20243;-70
2023/01/31 11:55:37;;;;;;;8.47;2.73;;;8.10;39.30;;;;;;10280771;28;20326;-70
2023/01/31 12:00:51;;;;;;;5.60;2.67;;;8.10;39.30;;;;;;10287062;28;20223;-70
2023/01/31 12:06:01;;;;;;;6.13;2.87;;;8.10;39.30;;;;;;10295875;28;20616;-71
2023/01/31 12:11:06;;;;;;;7.17;3.63;;;8.20;39.10;;;;;;10336259;23;20239;-82
2023/01/31 12:16:12;;;;;;;6.13;3.43;;;8.30;39.50;;;;;;10380947;28;20654;-81
2023/01/31 12:21:19;;;;;;;9.50;3.90;;;8.30;39.20;;;;;;10375934;28;20233;-81
2023/01/31 12:26:31;;;;;;;9.73;3.00;;;8.30;38.80;;;;;;10375126;28;20598;-83
2023/01/31 12:31:52;;;;;;;7.60;2.97;;;8.30;38.00;;;;;;10384320;28;20230;-80
2023/01/31 12:37:19;;;;;;;7.67;3.10;;;8.30;37.30;;;;;;10378900;28;20245;-83
2023/01/31 12:42:52;;;;;;;7.43;2.53;;;8.30;37.70;;;;;;10380402;28;20294;-81
2023/01/31 12:48:19;;;;;;;6.87;3.00;;;8.30;36.40;;;;;;10378216;28;20679;-80
2023/01/31 12:53:51;;;;;;;7.73;2.80;;;8.30;37.60;;;;;;10365098;28;20690;-78
2023/01/31 12:59:00;;;;;;;7.40;3.40;;;8.40;37.60;;;;;;10352734;28;20230;-79
2023/01/31 13:04:31;;;;;;;8.67;3.63;;;8.50;37.80;;;;;;10363982;28;20312;-79
2023/01/31 13:09:35;;;;;;;6.70;3.40;;;8.50;37.20;;;;;;10370549;28;20229;-79
2023/01/31 13:14:42;;;;;;;4.10;2.63;;;8.60;38.10;;;;;;10371975;28;20663;-86
2023/01/31 13:19:51;;;;;;;6.63;3.83;;;8.60;37.70;;;;;;10376034;28;20319;-80
2023/01/31 13:25:16;;;;;;;7.93;3.70;;;8.60;37.50;;;;;;10358434;28;20230;-78
2023/01/31 13:30:28;;;;;;;3.90;2.43;;;8.70;37.00;;;;;;10351274;28;20280;-80
2023/01/31 13:35:39;;;;;;;5.03;2.43;;;8.70;36.90;;;;;;10350451;28;20238;-80
2023/01/31 13:40:53;;;;;;;5.60;2.70;;;8.70;37.10;;;;;;10345651;28;20246;-76
2023/01/31 13:46:00;;;;;;;5.13;2.97;;;8.70;36.60;;;;;;10336075;28;20313;-77
2023/01/31 13:51:14;;;;;;;5.97;2.60;;;8.70;37.60;;;;;;10334264;28;20235;-77
2023/01/31 13:56:24;;;;;;;5.80;2.90;;;8.70;37.20;;;;;;10316668;28;20230;-80
2023/01/31 14:01:30;;;;;;;6.00;2.60;;;8.70;37.40;;;;;;10325470;28;20235;-83
2023/01/31 14:06:57;;;;;;;4.40;2.80;;;8.70;38.10;;;;;;10323580;28;20262;-78
2023/01/31 14:12:21;;;;;;;4.13;2.63;;;8.60;35.70;;;;;;10312901;28;20235;-82
2023/01/31 14:18:06;;;;;;;4.20;2.30;;;8.60;37.40;;;;;;10325916;28;20702;-81
2023/01/31 14:23:29;;;;;;;3.87;2.10;;;8.50;37.10;;;;;;10267223;28;20237;-81
2023/01/31 14:28:33;;;;;;;6.10;2.50;;;8.50;36.40;;;;;;10327958;28;20729;-82
2023/01/31 14:33:37;;;;;;;5.80;2.57;;;8.60;37.60;;;;;;10326294;28;20314;-81
2023/01/31 14:39:16;;;;;;;5.53;2.60;;;8.50;37.10;;;;;;10328247;28;20578;-81
2023/01/31 14:44:30;;;;;;;5.07;3.07;;;8.50;36.30;;;;;;10411546;28;20229;-81
2023/01/31 14:50:00;;;;;;;5.00;2.90;;;8.50;36.90;;;;;;10424247;28;20306;-81
2023/01/31 14:55:22;;;;;;;6.03;2.90;;;8.40;36.30;;;;;;10410502;28;20244;-81
2023/01/31 15:00:29;;;;;;;6.07;3.60;;;8.40;36.90;;;;;;10411268;28;20234;-81
2023/01/31 15:05:43;;;;;;;3.77;2.67;;;8.40;37.20;;;;;;10404939;28;20248;-80
2023/01/31 15:11:01;;;;;;;4.43;2.70;;;8.30;36.80;;;;;;10405666;28;21299;-81
2023/01/31 15:16:09;;;;;;;5.90;3.50;;;8.30;36.70;;;;;;10409535;28;20213;-81
2023/01/31 15:21:18;;;;;;;3.90;2.70;;;8.30;37.40;;;;;;10408361;28;20320;-81
2023/01/31 15:26:25;;;;;;;5.63;3.63;;;8.30;37.70;;;;;;10406535;28;20233;-81
2023/01/31 15:31:32;;;;;;;7.37;4.50;;;8.30;37.50;;;;;;10399447;28;20229;-80
2023/01/31 15:36:42;;;;;;;4.60;2.50;;;8.20;37.40;;;;;;10417700;28;20217;-82
2023/01/31 15:41:47;;;;;;;4.97;3.60;;;8.20;37.60;;;;;;10414432;28;20237;-82
2023/01/31 15:46:51;;;;;;;9.97;6.20;;;8.20;37.50;;;;;;10414114;28;20312;-80
2023/01/31 15:52:13;;;;;;;5.10;3.73;;;8.20;37.70;;;;;;10413170;28;20226;-81
2023/01/31 15:57:18;;;;;;;5.90;3.43;;;8.20;36.80;;;;;;10416413;28;20222;-82
2023/01/31 16:02:25;;;;;;;8.17;4.00;;;8.20;37.40;;;;;;10414235;28;20229;-82
2023/01/31 16:07:30;;;;;;;4.87;3.67;;;8.20;37.50;;;;;;10415922;28;20222;-80
2023/01/31 16:12:40;;;;;;;4.70;3.70;;;8.10;37.80;;;;;;10409807;28;20317;-78
2023/01/31 16:17:43;;;;;;;5.67;4.10;;;8.10;37.40;;;;;;10402330;28;20230;-78
2023/01/31 16:22:56;;;;;;;4.60;3.70;;;8.00;37.90;;;;;;10395733;28;20248;-78
2023/01/31 16:28:04;;;;;;;5.27;3.50;;;8.00;37.50;;;;;;10402237;28;20229;-81
2023/01/31 16:33:16;;;;;;;4.87;4.00;;;7.90;37.60;;;;;;10400136;28;20217;-80
2023/01/31 16:38:26;;;;;;;4.33;3.37;;;7.80;37.50;;;;;;10404874;28;20234;-80
2023/01/31 16:43:32;;;;;;;5.80;4.23;;;7.80;37.90;;;;;;10405169;28;20784;-79
2023/01/31 16:48:39;;;;;;;4.83;3.77;;;7.80;38.10;;;;;;10398139;28;20399;-78
2023/01/31 16:53:42;;;;;;;4.53;3.57;;;7.80;38.20;;;;;;10403116;28;20232;-79
2023/01/31 16:58:49;;;;;;;4.57;3.90;;;7.80;38.30;;;;;;10406174;28;20328;-79
2023/01/31 17:04:15;;;;;;;6.57;4.43;;;7.80;38.10;;;;;;10408604;28;20232;-80
2023/01/31 17:09:22;;;;;;;5.47;4.03;;;7.70;37.80;;;;;;10409292;28;20237;-80
2023/01/31 17:14:31;;;;;;;7.10;5.10;;;7.80;38.30;;;;;;10408674;28;20230;-80
2023/01/31 17:19:35;;;;;;;5.93;3.77;;;7.80;38.10;;;;;;10401788;28;20226;-81
2023/01/31 17:24:38;;;;;;;6.33;3.93;;;7.90;38.40;;;;;;10409980;28;20233;-80
2023/01/31 17:29:43;;;;;;;4.10;3.70;;;7.80;38.30;;;;;;10406431;28;20324;-79
2023/01/31 17:34:47;;;;;;;5.93;3.57;;;7.80;38.30;;;;;;10407074;28;20237;-81
2023/01/31 17:39:51;;;;;;;5.67;3.67;;;7.90;38.40;;;;;;10403025;28;20705;-81
2023/01/31 17:44:55;;;;;;;5.27;3.93;;;7.80;38.40;;;;;;10407290;28;20241;-81
2023/01/31 17:49:59;;;;;;;4.60;3.70;;;7.90;38.30;;;;;;10401185;28;20244;-80
2023/01/31 17:55:30;;;;;;;4.70;3.23;;;7.80;38.50;;;;;;10404330;28;20241;-81
2023/01/31 18:00:46;;;;;;;4.83;3.10;;;7.80;37.80;;;;;;10375152;28;20234;-81
2023/01/31 18:05:52;;;;;;;4.33;3.17;;;7.80;38.00;;;;;;10411466;28;20293;-83
2023/01/31 18:10:55;;;;;;;3.90;3.17;;;7.80;38.30;;;;;;10403524;28;20233;-83
2023/01/31 18:16:07;;;;;;;3.73;3.00;;;7.80;38.60;;;;;;10396461;28;20214;-82
2023/01/31 18:21:11;;;;;;;5.83;3.20;;;7.90;38.00;;;;;;10409887;28;20229;-81
2023/01/31 18:26:16;;;;;;;5.53;3.30;;;7.90;38.60;;;;;;10403038;28;20233;-83
2023/01/31 18:31:21;;;;;;;4.10;3.17;;;7.90;38.40;;;;;;10398677;28;20264;-82
2023/01/31 18:36:24;;;;;;;3.80;2.90;;;7.90;38.10;;;;;;10410755;28;20229;-82
2023/01/31 18:41:27;;;;;;;3.43;3.10;;;7.90;38.20;;;;;;10400658;28;20233;-81
2023/01/31 18:46:32;;;;;;;3.10;2.80;;;8.00;38.40;;;;;;10407683;28;20315;-81
2023/01/31 18:51:35;;;;;;;3.93;3.33;;;8.00;38.30;;;;;;10406115;28;20725;-81
2023/01/31 18:56:38;;;;;;;3.67;2.90;;;8.00;38.30;;;;;;10405855;28;20884;-81
2023/01/31 19:01:43;;;;;;;3.27;2.90;;;8.00;38.30;;;;;;10403051;28;20317;-80
2023/01/31 19:06:50;;;;;;;4.27;3.27;;;8.00;38.20;;;;;;10408822;28;20697;-81
2023/01/31 19:11:53;;;;;;;7.20;3.17;;;8.00;38.40;;;;;;10407059;28;20245;-81
2023/01/31 19:16:58;;;;;;;5.03;2.83;;;8.00;38.50;;;;;;10402642;28;20771;-81
2023/01/31 19:22:01;;;;;;;2.90;2.70;;;8.00;38.10;;;;;;10410875;28;20229;-79
2023/01/31 19:27:04;;;;;;;5.73;2.97;;;8.00;38.40;;;;;;10413137;28;20230;-79
2023/01/31 19:32:09;;;;;;;3.73;2.63;;;8.00;38.30;;;;;;10415963;28;20666;-79
2023/01/31 19:37:12;;;;;;;5.30;3.00;;;8.00;38.20;;;;;;10391197;28;20630;-78
2023/01/31 19:42:15;;;;;;;3.83;2.80;;;8.00;38.10;;;;;;10412471;28;20255;-79
2023/01/31 19:47:23;;;;;;;3.13;2.47;;;8.00;38.10;;;;;;10414262;28;20708;-80
2023/01/31 19:52:29;;;;;;;3.30;2.63;;;8.00;38.00;;;;;;10406257;28;20230;-78
2023/01/31 19:57:32;;;;;;;3.47;2.70;;;8.00;38.20;;;;;;10402348;28;20229;-77
2023/01/31 20:02:41;;;;;;;5.23;3.00;;;8.00;38.10;;;;;;10398847;28;20717;-77
2023/01/31 20:07:45;;;;;;;5.43;2.83;;;7.90;37.70;;;;;;10392573;28;20236;-77
2023/01/31 20:12:48;;;;;;;3.30;2.83;;;7.90;38.20;;;;;;10394551;28;20234;-78
2023/01/31 20:17:53;;;;;;;4.13;2.90;;;7.90;38.10;;;;;;10397247;28;20245;-79
2023/01/31 20:22:57;;;;;;;4.60;3.20;;;7.90;38.10;;;;;;10400876;28;20333;-78
2023/01/31 20:28:00;;;;;;;6.73;4.00;;;7.90;38.30;;;;;;10403099;28;20229;-79
2023/01/31 20:33:04;;;;;;;5.07;3.27;;;7.80;38.20;;;;;;10403747;28;20233;-76
2023/01/31 20:38:08;;;;;;;3.63;2.97;;;7.80;38.10;;;;;;10399671;28;20233;-77
2023/01/31 20:43:11;;;;;;;4.73;3.80;;;7.80;38.30;;;;;;10398460;28;20238;-77
2023/01/31 20:48:17;;;;;;;4.47;3.53;;;7.80;38.50;;;;;;10399675;28;20445;-80
2023/01/31 20:53:20;;;;;;;5.60;3.70;;;7.80;38.30;;;;;;10389048;28;20397;-80
2023/01/31 20:58:24;;;;;;;3.90;3.53;;;7.80;38.60;;;;;;10387170;28;20238;-80
2023/01/31 21:03:29;;;;;;;3.97;3.30;;;7.80;38.40;;;;;;10388151;28;20346;-80
2023/01/31 21:08:34;;;;;;;4.10;3.37;;;7.80;38.30;;;;;;10383428;28;20535;-79
2023/01/31 21:13:38;;;;;;;5.70;3.50;;;7.80;38.40;;;;;;10391929;28;20257;-80
2023/01/31 21:18:43;;;;;;;4.10;3.10;;;7.80;38.40;;;;;;10390468;28;20229;-81
2023/01/31 21:23:47;;;;;;;5.50;3.50;;;7.80;38.30;;;;;;10401887;28;20507;-81
2023/01/31 21:28:50;;;;;;;3.63;2.97;;;7.80;38.60;;;;;;10398372;28;20248;-81
2023/01/31 21:33:55;;;;;;;3.93;3.00;;;7.80;38.60;;;;;;10402901;28;20222;-82
2023/01/31 21:38:59;;;;;;;4.43;3.27;;;7.80;38.80;;;;;;10407850;28;20217;-82
2023/01/31 21:44:02;;;;;;;3.60;3.27;;;7.80;39.00;;;;;;10402079;28;20228;-81
2023/01/31 21:49:07;;;;;;;3.20;2.90;;;7.70;39.00;;;;;;10408823;28;20257;-81
2023/01/31 21:54:11;;;;;;;4.40;3.30;;;7.70;39.00;;;;;;10415229;28;20268;-81
2023/01/31 21:59:14;;;;;;;3.57;3.13;;;7.60;38.90;;;;;;10413361;28;20221;-82
2023/01/31 22:04:19;;;;;;;3.60;2.83;;;7.60;38.90;;;;;;10408828;28;20313;-81
2023/01/31 22:09:23;;;;;;;3.50;3.17;;;7.60;38.90;;;;;;10404026;28;20225;-82
2023/01/31 22:14:26;;;;;;;5.73;3.13;;;7.70;39.00;;;;;;10412244;28;20230;-82
2023/01/31 22:19:31;;;;;;;3.43;3.13;;;7.70;39.00;;;;;;10418145;28;20245;-81
2023/01/31 22:24:34;;;;;;;3.93;3.40;;;7.70;39.00;;;;;;10418362;28;20253;-81
2023/01/31 22:29:37;;;;;;;3.90;3.27;;;7.80;39.10;;;;;;10423424;28;20228;-81
2023/01/31 22:34:42;;;;;;;4.57;3.20;;;7.80;39.00;;;;;;10421613;28;20960;-82
2023/01/31 22:39:45;;;;;;;4.00;3.30;;;7.80;39.10;;;;;;10421375;28;20253;-82
2023/01/31 22:44:49;;;;;;;3.67;3.33;;;7.80;39.10;;;;;;10421560;28;20628;-80
2023/01/31 22:49:53;;;;;;;3.33;3.03;;;7.80;39.10;;;;;;10425532;28;20225;-80
2023/01/31 22:54:56;;;;;;;3.90;3.33;;;7.80;39.10;;;;;;10406770;28;20221;-81
2023/01/31 23:00:00;;;;;;;3.90;3.10;;;7.80;39.10;;;;;;10372668;28;20240;-80
2023/01/31 23:05:07;;;;;;;4.57;3.30;;;7.80;39.10;;;;;;10399056;28;20717;-80
2023/01/31 23:10:11;;;;;;;3.97;3.50;;;7.80;39.10;;;;;;10416195;28;20233;-81
2023/01/31 23:15:15;;;;;;;4.23;3.20;;;7.80;39.10;;;;;;10414928;28;20291;-80
2023/01/31 23:20:22;;;;;;;4.07;3.30;;;7.80;39.10;;;;;;10414295;28;20229;-79
2023/01/31 23:25:28;;;;;;;3.67;3.10;;;7.80;39.10;;;;;;10412998;28;20260;-79
2023/01/31 23:30:31;;;;;;;4.53;3.40;;;7.80;39.10;;;;;;10413416;28;20228;-80
2023/01/31 23:35:39;;;;;;;3.63;3.00;;;7.80;39.10;;;;;;10415622;28;20733;-80
2023/01/31 23:40:42;;;;;;;3.50;3.00;;;7.80;39.10;;;;;;10414588;28;20747;-80
2023/01/31 23:45:46;;;;;;;3.70;2.97;;;7.80;39.10;;;;;;10414833;28;20316;-80
2023/01/31 23:50:50;;;;;;;3.00;2.70;;;7.80;39.10;;;;;;10414624;28;20237;-80
2023/01/31 23:55:54;;;;;;;3.83;3.27;;;7.80;39.10;;;;;;10421450;28;20252;-80
